Wetterdaten: aktuell Donnerstag, 18.07.2024 20:20
Datum Zeit Temp. A. Feuchte A. Luftdruck Regen Wind Richtung Richtung Taupunkt Windchill Windben
18.07.2024 20:20 25,9 C 59 % 1018,8 hPa 0,0 l/m 1,5 km/h (1 Bft) N-NW 344 17,3 C 25,9 C 4,8 km/h (1 Bft)
18.07.2024 20:15 26,0 C 59 % 1018,7 hPa 0,0 l/m 1,9 km/h (1 Bft) N-NW 344 17,4 C 26,0 C 3,2 km/h (1 Bft)
18.07.2024 20:10 26,2 C 58 % 1018,7 hPa 0,0 l/m 1,5 km/h (1 Bft) N-NW 345 17,3 C 26,2 C 3,2 km/h (1 Bft)
18.07.2024 20:05 26,3 C 58 % 1018,6 hPa 0,0 l/m 0,7 km/h (0 Bft) N-NW 340 17,4 C 26,3 C 3,2 km/h (1 Bft)
18.07.2024 20:00 26,4 C 58 % 1018,6 hPa 0,0 l/m 1,6 km/h (1 Bft) N-NW 338 17,5 C 26,4 C 4,8 km/h (1 Bft)
18.07.2024 19:55 26,5 C 58 % 1018,6 hPa 0,0 l/m 1,3 km/h (1 Bft) N-NW 338 17,5 C 26,5 C 3,2 km/h (1 Bft)
18.07.2024 19:50 26,6 C 58 % 1018,6 hPa 0,0 l/m 1,2 km/h (1 Bft) N-NW 338 17,6 C 26,6 C 4,8 km/h (1 Bft)
18.07.2024 19:45 26,5 C 58 % 1018,6 hPa 0,0 l/m 3,3 km/h (1 Bft) N-NW 337 17,5 C 26,5 C 6,4 km/h (2 Bft)
18.07.2024 19:40 26,7 C 58 % 1018,5 hPa 0,0 l/m 3,2 km/h (1 Bft) N 9 17,7 C 26,7 C 6,4 km/h (2 Bft)
18.07.2024 19:35 26,8 C 57 % 1018,5 hPa 0,0 l/m 2,8 km/h (1 Bft) N-NW 345 17,6 C 26,8 C 4,8 km/h (1 Bft)
18.07.2024 19:30 26,9 C 57 % 1018,5 hPa 0,0 l/m 2,7 km/h (1 Bft) N-NW 345 17,6 C 26,9 C 6,4 km/h (2 Bft)
18.07.2024 19:25 26,9 C 57 % 1018,6 hPa 0,0 l/m 3,2 km/h (1 Bft) N-NW 336 17,6 C 26,9 C 4,8 km/h (1 Bft)
18.07.2024 19:20 27,0 C 57 % 1018,5 hPa 0,0 l/m 2,0 km/h (1 Bft) N-NW 339 17,7 C 27,0 C 4,8 km/h (1 Bft)
18.07.2024 19:15 26,9 C 58 % 1018,6 hPa 0,0 l/m 3,8 km/h (1 Bft) N 355 17,9 C 26,9 C 6,4 km/h (2 Bft)
18.07.2024 19:10 27,0 C 58 % 1018,6 hPa 0,0 l/m 4,0 km/h (1 Bft) N-NW 348 18,0 C 27,0 C 12,9 km/h (3 Bft)
18.07.2024 19:05 26,9 C 58 % 1018,5 hPa 0,0 l/m 3,4 km/h (1 Bft) N-NW 338 17,9 C 26,9 C 8,0 km/h (2 Bft)
18.07.2024 19:00 26,8 C 58 % 1018,6 hPa 0,0 l/m 4,6 km/h (1 Bft) N-NW 330 17,8 C 26,8 C 9,7 km/h (2 Bft)
18.07.2024 18:55 26,8 C 58 % 1018,6 hPa 0,0 l/m 5,0 km/h (1 Bft) N 355 17,8 C 26,8 C 12,9 km/h (3 Bft)
18.07.2024 18:50 26,9 C 57 % 1018,5 hPa 0,0 l/m 6,2 km/h (2 Bft) N 360 17,6 C 26,9 C 14,5 km/h (3 Bft)
18.07.2024 18:45 27,1 C 58 % 1018,6 hPa 0,0 l/m 4,3 km/h (1 Bft) N 355 18,1 C 27,1 C 12,9 km/h (3 Bft)
18.07.2024 18:40 27,0 C 58 % 1018,6 hPa 0,0 l/m 5,4 km/h (1 Bft) N 355 18,0 C 27,0 C 12,9 km/h (3 Bft)
18.07.2024 18:35 27,1 C 58 % 1018,5 hPa 0,0 l/m 4,4 km/h (1 Bft) N 5 18,1 C 27,1 C 12,9 km/h (3 Bft)
18.07.2024 18:30 27,0 C 58 % 1018,6 hPa 0,0 l/m 5,5 km/h (1 Bft) W-NW 286 18,0 C 27,0 C 14,5 km/h (3 Bft)
18.07.2024 18:25 27,0 C 58 % 1018,5 hPa 0,0 l/m 5,4 km/h (1 Bft) N 355 18,0 C 27,0 C 12,9 km/h (3 Bft)
18.07.2024 18:20 27,1 C 57 % 1018,5 hPa 0,0 l/m 7,5 km/h (2 Bft) N 351 17,8 C 26,9 C 14,5 km/h (3 Bft)
18.07.2024 18:15 27,3 C 58 % 1018,6 hPa 0,0 l/m 3,7 km/h (1 Bft) NW 325 18,3 C 27,3 C 8,0 km/h (2 Bft)
18.07.2024 18:10 27,1 C 58 % 1018,5 hPa 0,0 l/m 5,6 km/h (1 Bft) N-NW 341 18,1 C 27,1 C 14,5 km/h (3 Bft)
18.07.2024 18:05 27,1 C 58 % 1018,5 hPa 0,0 l/m 5,2 km/h (1 Bft) N-NW 346 18,1 C 27,1 C 14,5 km/h (3 Bft)
18.07.2024 18:00 27,1 C 58 % 1018,5 hPa 0,0 l/m 6,3 km/h (2 Bft) N-NW 329 18,1 C 27,1 C 12,9 km/h (3 Bft)
18.07.2024 17:55 27,1 C 58 % 1018,5 hPa 0,0 l/m 6,5 km/h (2 Bft) N-NO 15 18,1 C 27,1 C 16,1 km/h (3 Bft)
18.07.2024 17:50 27,2 C 57 % 1018,5 hPa 0,0 l/m 6,0 km/h (2 Bft) N 355 17,9 C 27,2 C 14,5 km/h (3 Bft)
18.07.2024 17:45 27,2 C 58 % 1018,5 hPa 0,0 l/m 5,7 km/h (1 Bft) N-NW 344 18,2 C 27,2 C 14,5 km/h (3 Bft)
18.07.2024 17:40 27,1 C 58 % 1018,5 hPa 0,0 l/m 6,9 km/h (2 Bft) N 349 18,1 C 27,0 C 14,5 km/h (3 Bft)
18.07.2024 17:35 27,3 C 58 % 1018,5 hPa 0,0 l/m 5,4 km/h (1 Bft) N-NW 333 18,3 C 27,3 C 12,9 km/h (3 Bft)
18.07.2024 17:30 27,2 C 58 % 1018,5 hPa 0,0 l/m 6,5 km/h (2 Bft) N-NW 344 18,2 C 27,2 C 17,7 km/h (3 Bft)
18.07.2024 17:25 27,2 C 58 % 1018,6 hPa 0,0 l/m 7,7 km/h (2 Bft) N-NW 342 18,2 C 27,0 C 16,1 km/h (3 Bft)
18.07.2024 17:20 27,5 C 58 % 1018,7 hPa 0,0 l/m 6,2 km/h (2 Bft) N-NW 340 18,5 C 27,5 C 16,1 km/h (3 Bft)
18.07.2024 17:15 27,2 C 59 % 1018,6 hPa 0,0 l/m 5,7 km/h (1 Bft) N-NW 344 18,5 C 27,2 C 11,3 km/h (2 Bft)
18.07.2024 17:10 27,4 C 58 % 1018,6 hPa 0,0 l/m 5,5 km/h (1 Bft) N 351 18,4 C 27,4 C 14,5 km/h (3 Bft)
18.07.2024 17:05 27,4 C 60 % 1018,7 hPa 0,0 l/m 5,5 km/h (1 Bft) N 360 18,9 C 27,4 C 12,9 km/h (3 Bft)
18.07.2024 17:00 27,2 C 59 % 1018,8 hPa 0,0 l/m 7,4 km/h (2 Bft) W 281 18,5 C 27,0 C 14,5 km/h (3 Bft)
18.07.2024 16:55 27,4 C 59 % 1018,7 hPa 0,0 l/m 6,3 km/h (2 Bft) NW 317 18,7 C 27,4 C 14,5 km/h (3 Bft)
18.07.2024 16:50 27,4 C 59 % 1018,8 hPa 0,0 l/m 6,8 km/h (2 Bft) NW 311 18,7 C 27,3 C 12,9 km/h (3 Bft)
18.07.2024 16:45 27,6 C 58 % 1018,7 hPa 0,0 l/m 6,1 km/h (2 Bft) N-NW 348 18,6 C 27,6 C 12,9 km/h (3 Bft)
18.07.2024 16:40 27,4 C 59 % 1018,7 hPa 0,0 l/m 7,2 km/h (2 Bft) N-NW 338 18,7 C 27,3 C 14,5 km/h (3 Bft)
18.07.2024 16:35 27,6 C 60 % 1018,7 hPa 0,0 l/m 5,0 km/h (1 Bft) N-NW 331 19,1 C 27,6 C 17,7 km/h (3 Bft)
18.07.2024 16:30 27,6 C 60 % 1018,7 hPa 0,0 l/m 4,8 km/h (1 Bft) N 350 19,1 C 27,6 C 14,5 km/h (3 Bft)
18.07.2024 16:25 27,3 C 60 % 1018,7 hPa 0,0 l/m 6,3 km/h (2 Bft) N 350 18,8 C 27,3 C 17,7 km/h (3 Bft)
18.07.2024 16:20 27,4 C 60 % 1018,8 hPa 0,0 l/m 6,6 km/h (2 Bft) N-NW 331 18,9 C 27,4 C 17,7 km/h (3 Bft)
18.07.2024 16:15 27,4 C 60 % 1018,7 hPa 0,0 l/m 7,4 km/h (2 Bft) N-NW 342 18,9 C 27,2 C 16,1 km/h (3 Bft)
18.07.2024 16:10 27,4 C 60 % 1018,8 hPa 0,0 l/m 5,1 km/h (1 Bft) N 355 18,9 C 27,4 C 12,9 km/h (3 Bft)
18.07.2024 16:05 27,5 C 60 % 1018,8 hPa 0,0 l/m 5,0 km/h (1 Bft) N 350 19,0 C 27,5 C 12,9 km/h (3 Bft)
18.07.2024 16:00 27,3 C 60 % 1018,8 hPa 0,0 l/m 6,6 km/h (2 Bft) N-NW 344 18,8 C 27,3 C 17,7 km/h (3 Bft)
18.07.2024 15:55 27,2 C 61 % 1018,8 hPa 0,0 l/m 7,1 km/h (2 Bft) N 350 19,0 C 27,1 C 16,1 km/h (3 Bft)
18.07.2024 15:50 27,3 C 62 % 1018,9 hPa 0,0 l/m 5,3 km/h (1 Bft) N-NW 345 19,4 C 27,3 C 12,9 km/h (3 Bft)
18.07.2024 15:45 27,2 C 61 % 1018,9 hPa 0,0 l/m 6,1 km/h (2 Bft) N 355 19,0 C 27,2 C 14,5 km/h (3 Bft)
18.07.2024 15:40 26,9 C 61 % 1019,0 hPa 0,0 l/m 7,3 km/h (2 Bft) N-NW 336 18,7 C 26,7 C 14,5 km/h (3 Bft)
18.07.2024 15:35 26,8 C 62 % 1019,0 hPa 0,0 l/m 5,9 km/h (2 Bft) N-NW 346 18,9 C 26,8 C 14,5 km/h (3 Bft)
18.07.2024 15:30 26,8 C 61 % 1019,0 hPa 0,0 l/m 9,8 km/h (2 Bft) N-NW 327 18,6 C 26,2 C 17,7 km/h (3 Bft)
18.07.2024 15:25 26,8 C 62 % 1019,0 hPa 0,0 l/m 6,0 km/h (2 Bft) N 360 18,9 C 26,8 C 12,9 km/h (3 Bft)
18.07.2024 15:20 26,7 C 62 % 1019,1 hPa 0,0 l/m 6,9 km/h (2 Bft) W-NW 292 18,8 C 26,6 C 14,5 km/h (3 Bft)
18.07.2024 15:15 26,6 C 61 % 1019,0 hPa 0,0 l/m 6,5 km/h (2 Bft) N 355 18,4 C 26,6 C 14,5 km/h (3 Bft)
18.07.2024 15:10 26,6 C 62 % 1019,1 hPa 0,0 l/m 7,2 km/h (2 Bft) N-NW 342 18,7 C 26,4 C 14,5 km/h (3 Bft)
18.07.2024 15:05 26,6 C 62 % 1019,1 hPa 0,0 l/m 7,8 km/h (2 Bft) NW 319 18,7 C 26,3 C 14,5 km/h (3 Bft)
18.07.2024 15:00 26,7 C 63 % 1019,1 hPa 0,0 l/m 5,2 km/h (1 Bft) N-NW 344 19,1 C 26,7 C 14,5 km/h (3 Bft)
18.07.2024 14:55 26,6 C 63 % 1019,1 hPa 0,0 l/m 6,5 km/h (2 Bft) N-NW 340 19,0 C 26,6 C 12,9 km/h (3 Bft)
18.07.2024 14:50 26,4 C 63 % 1019,1 hPa 0,0 l/m 6,7 km/h (2 Bft) N-NW 333 18,8 C 26,3 C 12,9 km/h (3 Bft)
18.07.2024 14:45 26,2 C 63 % 1019,3 hPa 0,0 l/m 6,9 km/h (2 Bft) N-NW 347 18,6 C 26,1 C 14,5 km/h (3 Bft)
18.07.2024 14:40 26,2 C 62 % 1019,3 hPa 0,0 l/m 7,6 km/h (2 Bft) N 355 18,3 C 25,9 C 16,1 km/h (3 Bft)
18.07.2024 14:35 26,2 C 64 % 1019,3 hPa 0,0 l/m 6,0 km/h (2 Bft) N-NW 333 18,8 C 26,2 C 14,5 km/h (3 Bft)
18.07.2024 14:30 26,4 C 63 % 1019,4 hPa 0,0 l/m 7,4 km/h (2 Bft) N-NW 344 18,8 C 26,2 C 17,7 km/h (3 Bft)
18.07.2024 14:25 26,2 C 64 % 1019,4 hPa 0,0 l/m 5,0 km/h (1 Bft) NW 319 18,8 C 26,2 C 9,7 km/h (2 Bft)
18.07.2024 14:20 26,1 C 63 % 1019,4 hPa 0,0 l/m 7,2 km/h (2 Bft) N-NW 344 18,5 C 25,9 C 16,1 km/h (3 Bft)
18.07.2024 14:15 26,1 C 64 % 1019,4 hPa 0,0 l/m 5,7 km/h (1 Bft) N 5 18,7 C 26,1 C 14,5 km/h (3 Bft)
18.07.2024 14:10 25,7 C 64 % 1019,4 hPa 0,0 l/m 7,0 km/h (2 Bft) N-NW 342 18,4 C 25,6 C 16,1 km/h (3 Bft)
18.07.2024 14:05 25,5 C 64 % 1019,4 hPa 0,0 l/m 6,4 km/h (2 Bft) N 355 18,2 C 25,5 C 14,5 km/h (3 Bft)
18.07.2024 14:00 25,5 C 65 % 1019,3 hPa 0,0 l/m 7,8 km/h (2 Bft) N 351 18,4 C 25,2 C 17,7 km/h (3 Bft)
18.07.2024 13:55 25,6 C 66 % 1019,4 hPa 0,0 l/m 6,9 km/h (2 Bft) N 355 18,8 C 25,5 C 14,5 km/h (3 Bft)
18.07.2024 13:50 25,4 C 65 % 1019,5 hPa 0,0 l/m 7,5 km/h (2 Bft) N 360 18,3 C 25,1 C 17,7 km/h (3 Bft)
18.07.2024 13:45 25,6 C 65 % 1019,5 hPa 0,0 l/m 6,1 km/h (2 Bft) NW 319 18,5 C 25,6 C 14,5 km/h (3 Bft)
18.07.2024 13:40 25,4 C 66 % 1019,5 hPa 0,0 l/m 5,5 km/h (1 Bft) N-NW 342 18,6 C 25,4 C 12,9 km/h (3 Bft)
18.07.2024 13:35 25,4 C 65 % 1019,6 hPa 0,0 l/m 6,1 km/h (2 Bft) N-NW 340 18,3 C 25,4 C 14,5 km/h (3 Bft)
18.07.2024 13:30 25,3 C 67 % 1019,6 hPa 0,0 l/m 6,1 km/h (2 Bft) N-NW 348 18,7 C 25,3 C 12,9 km/h (3 Bft)
18.07.2024 13:25 25,3 C 66 % 1019,6 hPa 0,0 l/m 4,6 km/h (1 Bft) N 355 18,5 C 25,3 C 9,7 km/h (2 Bft)
18.07.2024 13:20 25,5 C 67 % 1019,6 hPa 0,0 l/m 4,8 km/h (1 Bft) N-NW 334 18,9 C 25,5 C 14,5 km/h (3 Bft)
18.07.2024 13:15 25,2 C 65 % 1019,6 hPa 0,0 l/m 4,8 km/h (1 Bft) N-NW 336 18,1 C 25,2 C 9,7 km/h (2 Bft)
18.07.2024 13:10 25,2 C 66 % 1019,6 hPa 0,0 l/m 6,6 km/h (2 Bft) N 355 18,4 C 25,2 C 14,5 km/h (3 Bft)
18.07.2024 13:05 25,1 C 69 % 1019,6 hPa 0,0 l/m 2,2 km/h (1 Bft) N-NW 345 19,0 C 25,1 C 4,8 km/h (1 Bft)
18.07.2024 13:00 24,8 C 66 % 1019,7 hPa 0,0 l/m 6,2 km/h (2 Bft) N-NW 344 18,0 C 24,8 C 12,9 km/h (3 Bft)
18.07.2024 12:55 24,9 C 68 % 1019,7 hPa 0,0 l/m 5,6 km/h (1 Bft) N-NW 340 18,6 C 24,9 C 12,9 km/h (3 Bft)
18.07.2024 12:50 25,0 C 69 % 1019,6 hPa 0,0 l/m 4,4 km/h (1 Bft) N 355 18,9 C 25,0 C 9,7 km/h (2 Bft)
18.07.2024 12:45 24,9 C 68 % 1019,7 hPa 0,0 l/m 5,8 km/h (2 Bft) N-NW 344 18,6 C 24,9 C 12,9 km/h (3 Bft)
18.07.2024 12:40 24,8 C 68 % 1019,8 hPa 0,0 l/m 5,6 km/h (1 Bft) NW 323 18,5 C 24,8 C 16,1 km/h (3 Bft)
18.07.2024 12:35 24,7 C 68 % 1019,7 hPa 0,0 l/m 3,8 km/h (1 Bft) N-NW 329 18,4 C 24,7 C 9,7 km/h (2 Bft)
18.07.2024 12:30 24,6 C 70 % 1019,7 hPa 0,0 l/m 3,9 km/h (1 Bft) N-NW 346 18,8 C 24,6 C 9,7 km/h (2 Bft)
18.07.2024 12:25 24,1 C 70 % 1019,8 hPa 0,0 l/m 5,9 km/h (2 Bft) N 355 18,3 C 24,1 C 14,5 km/h (3 Bft)
18.07.2024 12:20 24,1 C 69 % 1019,7 hPa 0,0 l/m 5,6 km/h (1 Bft) N-NW 329 18,0 C 24,1 C 11,3 km/h (2 Bft)
18.07.2024 12:15 24,1 C 71 % 1019,7 hPa 0,0 l/m 7,2 km/h (2 Bft) N 355 18,5 C 23,9 C 17,7 km/h (3 Bft)
18.07.2024 12:10 23,9 C 70 % 1019,8 hPa 0,0 l/m 5,9 km/h (2 Bft) N 355 18,1 C 23,9 C 16,1 km/h (3 Bft)
18.07.2024 12:05 23,8 C 70 % 1019,8 hPa 0,0 l/m 5,4 km/h (1 Bft) NW 305 18,0 C 23,8 C 12,9 km/h (3 Bft)
_ Min-Zeit 06:30 17:50 17:30 - 01:20 - - 06:25 06:30 02:25
Minimum _ 17,3 C 57 % 1018,5 hPa - 0,0 km/h (0 Bft) - - 13,1 C 17,3 C 0,0 km/h (0 Bft)
_ Max-Zeit 16:40 07:40 00:00 00:00 15:30 - - 15:50 16:30 12:15
Maximum _ 27,7 C 78 % 1020,6 hPa 0,0 l/m 9,8 km/h
N-NW (2 Bft)
- - 19,4 C 27,6 C 17,7 km/h
N (3 Bft)
Durchschnitt _ 22,7 C 67 % 1019,5 hPa #0,0 l/m 2,8 km/h (1 Bft) N-NW - 16,1 C 22,7 C 7,4 km/h (2 Bft)